Cherry Creek, New York
Current Conditions -  °F | °C
As of 6:55 AM on Friday 19 Dec 2014 (Local Time) from KJHW Reporting Station
Overcast Overcast  
Wind Chill: 16°   Ceiling: 800
Heat Index: 25°   Visibility: 10mi
Dew Point: 21°   Wind: 8mph
Humidity: 86%   Direction: 310°NW
Pressure: 30.07"   Gusts: NA
Location:  42.29°N, 79.1°W
Report Text: KJHW 191155Z 31007KT 10SM OVC008 M04/M06 A3007 RMK AO1 11030 21040 52007
Loading
Personal Weather Stations






























Interactive Weather Map New forecast layout! Learn more

10-Day Weather Forecast

Advertisements
Track Severe Weather on mobile